sensor_id;sensor_type;location;lat;lon;timestamp;P1;durP1;ratioP1;P2;durP2;ratioP2
7495;SDS011;3789;47.064;15.482;2023-05-16T00:00:50;3.40;;;1.90;;
7495;SDS011;3789;47.064;15.482;2023-05-16T00:03:25;2.20;;;2.00;;
7495;SDS011;3789;47.064;15.482;2023-05-16T00:08:45;2.73;;;1.80;;
7495;SDS011;3789;47.064;15.482;2023-05-16T00:11:18;3.20;;;2.00;;
7495;SDS011;3789;47.064;15.482;2023-05-16T00:13:49;2.33;;;2.13;;
7495;SDS011;3789;47.064;15.482;2023-05-16T00:16:21;2.17;;;2.00;;
7495;SDS011;3789;47.064;15.482;2023-05-16T00:18:54;2.47;;;2.13;;
7495;SDS011;3789;47.064;15.482;2023-05-16T00:21:28;2.50;;;2.30;;
7495;SDS011;3789;47.064;15.482;2023-05-16T00:24:00;2.93;;;2.13;;
7495;SDS011;3789;47.064;15.482;2023-05-16T00:26:38;3.63;;;2.10;;
7495;SDS011;3789;47.064;15.482;2023-05-16T00:29:08;2.80;;;2.10;;
7495;SDS011;3789;47.064;15.482;2023-05-16T00:31:35;2.40;;;2.20;;
7495;SDS011;3789;47.064;15.482;2023-05-16T00:34:05;2.97;;;1.90;;
7495;SDS011;3789;47.064;15.482;2023-05-16T00:36:33;2.70;;;2.30;;
7495;SDS011;3789;47.064;15.482;2023-05-16T00:39:03;2.30;;;2.10;;
7495;SDS011;3789;47.064;15.482;2023-05-16T00:41:33;2.40;;;2.20;;
7495;SDS011;3789;47.064;15.482;2023-05-16T00:44:03;4.53;;;2.10;;
7495;SDS011;3789;47.064;15.482;2023-05-16T00:46:30;3.63;;;1.80;;
7495;SDS011;3789;47.064;15.482;2023-05-16T00:49:02;2.03;;;1.80;;
7495;SDS011;3789;47.064;15.482;2023-05-16T00:51:35;2.00;;;1.80;;
7495;SDS011;3789;47.064;15.482;2023-05-16T00:54:07;2.10;;;1.90;;
7495;SDS011;3789;47.064;15.482;2023-05-16T00:56:38;1.90;;;1.80;;
7495;SDS011;3789;47.064;15.482;2023-05-16T00:59:07;2.00;;;1.83;;
7495;SDS011;3789;47.064;15.482;2023-05-16T01:01:34;1.97;;;1.83;;
7495;SDS011;3789;47.064;15.482;2023-05-16T01:04:06;2.30;;;2.10;;
7495;SDS011;3789;47.064;15.482;2023-05-16T01:06:35;4.50;;;1.80;;
7495;SDS011;3789;47.064;15.482;2023-05-16T01:09:04;4.77;;;2.30;;
7495;SDS011;3789;47.064;15.482;2023-05-16T01:15:38;2.53;;;2.33;;
7495;SDS011;3789;47.064;15.482;2023-05-16T01:18:14;2.80;;;2.50;;
7495;SDS011;3789;47.064;15.482;2023-05-16T01:21:43;3.60;;;2.60;;
7495;SDS011;3789;47.064;15.482;2023-05-16T01:28:01;2.40;;;2.20;;
7495;SDS011;3789;47.064;15.482;2023-05-16T01:30:38;2.37;;;2.17;;
7495;SDS011;3789;47.064;15.482;2023-05-16T01:33:30;2.70;;;2.40;;
7495;SDS011;3789;47.064;15.482;2023-05-16T01:36:18;2.63;;;2.43;;
7495;SDS011;3789;47.064;15.482;2023-05-16T01:42:31;2.87;;;2.60;;
7495;SDS011;3789;47.064;15.482;2023-05-16T01:45:22;3.57;;;2.70;;
7495;SDS011;3789;47.064;15.482;2023-05-16T01:48:12;3.07;;;2.40;;
7495;SDS011;3789;47.064;15.482;2023-05-16T01:51:01;2.80;;;2.47;;
7495;SDS011;3789;47.064;15.482;2023-05-16T01:53:40;3.67;;;2.77;;
7495;SDS011;3789;47.064;15.482;2023-05-16T01:56:28;2.80;;;2.40;;
7495;SDS011;3789;47.064;15.482;2023-05-16T01:59:08;2.77;;;2.10;;
7495;SDS011;3789;47.064;15.482;2023-05-16T02:01:42;3.00;;;2.13;;
7495;SDS011;3789;47.064;15.482;2023-05-16T02:04:19;2.43;;;2.20;;
7495;SDS011;3789;47.064;15.482;2023-05-16T02:06:48;2.40;;;2.20;;
7495;SDS011;3789;47.064;15.482;2023-05-16T02:09:21;2.50;;;2.23;;
7495;SDS011;3789;47.064;15.482;2023-05-16T02:11:58;2.97;;;2.30;;
7495;SDS011;3789;47.064;15.482;2023-05-16T02:14:38;3.77;;;2.77;;
7495;SDS011;3789;47.064;15.482;2023-05-16T02:17:08;3.47;;;2.40;;
7495;SDS011;3789;47.064;15.482;2023-05-16T02:19:40;2.90;;;2.43;;
7495;SDS011;3789;47.064;15.482;2023-05-16T02:22:18;2.43;;;2.23;;
7495;SDS011;3789;47.064;15.482;2023-05-16T02:24:54;2.40;;;2.20;;
7495;SDS011;3789;47.064;15.482;2023-05-16T02:27:23;2.77;;;2.53;;
7495;SDS011;3789;47.064;15.482;2023-05-16T02:29:52;2.70;;;2.37;;
7495;SDS011;3789;47.064;15.482;2023-05-16T02:32:24;2.87;;;2.50;;
7495;SDS011;3789;47.064;15.482;2023-05-16T02:35:03;3.00;;;2.70;;
7495;SDS011;3789;47.064;15.482;2023-05-16T02:37:43;2.50;;;2.30;;
7495;SDS011;3789;47.064;15.482;2023-05-16T02:40:14;5.07;;;2.50;;
7495;SDS011;3789;47.064;15.482;2023-05-16T02:42:54;3.47;;;2.33;;
7495;SDS011;3789;47.064;15.482;2023-05-16T02:45:40;2.50;;;2.13;;
7495;SDS011;3789;47.064;15.482;2023-05-16T02:48:40;4.77;;;2.70;;
7495;SDS011;3789;47.064;15.482;2023-05-16T02:51:29;3.90;;;2.60;;
7495;SDS011;3789;47.064;15.482;2023-05-16T02:54:21;2.93;;;2.73;;
7495;SDS011;3789;47.064;15.482;2023-05-16T02:56:50;2.80;;;2.60;;
7495;SDS011;3789;47.064;15.482;2023-05-16T03:02:20;2.90;;;2.60;;
7495;SDS011;3789;47.064;15.482;2023-05-16T03:04:54;2.93;;;2.70;;
7495;SDS011;3789;47.064;15.482;2023-05-16T03:07:44;3.20;;;2.70;;
7495;SDS011;3789;47.064;15.482;2023-05-16T03:10:25;2.97;;;2.70;;
7495;SDS011;3789;47.064;15.482;2023-05-16T03:13:15;3.63;;;2.80;;
7495;SDS011;3789;47.064;15.482;2023-05-16T03:15:48;3.67;;;2.73;;
7495;SDS011;3789;47.064;15.482;2023-05-16T03:18:22;3.17;;;2.87;;
7495;SDS011;3789;47.064;15.482;2023-05-16T03:21:10;3.30;;;3.00;;
7495;SDS011;3789;47.064;15.482;2023-05-16T03:23:46;3.77;;;3.23;;
7495;SDS011;3789;47.064;15.482;2023-05-16T03:26:41;4.10;;;2.80;;
7495;SDS011;3789;47.064;15.482;2023-05-16T03:29:26;3.90;;;2.73;;
7495;SDS011;3789;47.064;15.482;2023-05-16T03:32:07;3.20;;;2.90;;
7495;SDS011;3789;47.064;15.482;2023-05-16T03:34:38;3.77;;;2.87;;
7495;SDS011;3789;47.064;15.482;2023-05-16T03:37:10;2.70;;;2.50;;
7495;SDS011;3789;47.064;15.482;2023-05-16T03:39:58;2.80;;;2.60;;
7495;SDS011;3789;47.064;15.482;2023-05-16T03:42:37;5.17;;;3.00;;
7495;SDS011;3789;47.064;15.482;2023-05-16T03:45:21;4.40;;;3.70;;
7495;SDS011;3789;47.064;15.482;2023-05-16T03:47:51;5.97;;;3.60;;
7495;SDS011;3789;47.064;15.482;2023-05-16T03:50:19;3.93;;;3.33;;
7495;SDS011;3789;47.064;15.482;2023-05-16T03:52:51;3.73;;;3.27;;
7495;SDS011;3789;47.064;15.482;2023-05-16T03:55:20;5.60;;;3.70;;
7495;SDS011;3789;47.064;15.482;2023-05-16T03:57:50;3.80;;;3.00;;
7495;SDS011;3789;47.064;15.482;2023-05-16T04:00:24;4.50;;;3.40;;
7495;SDS011;3789;47.064;15.482;2023-05-16T04:03:23;4.70;;;3.60;;
7495;SDS011;3789;47.064;15.482;2023-05-16T04:05:54;3.87;;;3.47;;
7495;SDS011;3789;47.064;15.482;2023-05-16T04:08:50;3.87;;;3.57;;
7495;SDS011;3789;47.064;15.482;2023-05-16T04:11:39;3.90;;;3.60;;
7495;SDS011;3789;47.064;15.482;2023-05-16T04:14:18;3.50;;;2.97;;
7495;SDS011;3789;47.064;15.482;2023-05-16T04:16:55;3.83;;;3.43;;
7495;SDS011;3789;47.064;15.482;2023-05-16T04:19:32;4.93;;;4.47;;
7495;SDS011;3789;47.064;15.482;2023-05-16T04:22:42;3.80;;;3.47;;
7495;SDS011;3789;47.064;15.482;2023-05-16T04:25:22;4.40;;;3.50;;
7495;SDS011;3789;47.064;15.482;2023-05-16T04:27:56;5.90;;;3.27;;
7495;SDS011;3789;47.064;15.482;2023-05-16T04:30:44;6.13;;;3.43;;
7495;SDS011;3789;47.064;15.482;2023-05-16T04:33:28;6.10;;;3.63;;
7495;SDS011;3789;47.064;15.482;2023-05-16T04:39:41;3.73;;;3.30;;
7495;SDS011;3789;47.064;15.482;2023-05-16T04:42:26;5.27;;;3.57;;
7495;SDS011;3789;47.064;15.482;2023-05-16T04:45:18;6.27;;;3.73;;
7495;SDS011;3789;47.064;15.482;2023-05-16T04:47:57;5.40;;;3.40;;
7495;SDS011;3789;47.064;15.482;2023-05-16T04:50:31;5.37;;;3.27;;
7495;SDS011;3789;47.064;15.482;2023-05-16T04:53:27;5.90;;;3.27;;
7495;SDS011;3789;47.064;15.482;2023-05-16T04:56:16;4.10;;;3.33;;
7495;SDS011;3789;47.064;15.482;2023-05-16T04:59:06;4.03;;;3.63;;
7495;SDS011;3789;47.064;15.482;2023-05-16T05:01:42;3.80;;;3.37;;
7495;SDS011;3789;47.064;15.482;2023-05-16T05:04:18;3.23;;;2.90;;
7495;SDS011;3789;47.064;15.482;2023-05-16T05:06:55;3.57;;;3.27;;
7495;SDS011;3789;47.064;15.482;2023-05-16T05:09:29;3.87;;;3.10;;
7495;SDS011;3789;47.064;15.482;2023-05-16T05:12:31;3.17;;;2.90;;
7495;SDS011;3789;47.064;15.482;2023-05-16T05:15:10;3.43;;;3.13;;
7495;SDS011;3789;47.064;15.482;2023-05-16T05:17:44;3.67;;;3.33;;
7495;SDS011;3789;47.064;15.482;2023-05-16T05:20:17;3.83;;;3.50;;
7495;SDS011;3789;47.064;15.482;2023-05-16T05:22:45;3.93;;;3.53;;
7495;SDS011;3789;47.064;15.482;2023-05-16T05:25:23;3.77;;;3.47;;
7495;SDS011;3789;47.064;15.482;2023-05-16T05:28:03;4.00;;;3.70;;
7495;SDS011;3789;47.064;15.482;2023-05-16T05:30:50;3.97;;;3.57;;
7495;SDS011;3789;47.064;15.482;2023-05-16T05:33:32;5.30;;;4.03;;
7495;SDS011;3789;47.064;15.482;2023-05-16T05:36:22;4.37;;;3.97;;
7495;SDS011;3789;47.064;15.482;2023-05-16T05:39:03;5.33;;;4.80;;
7495;SDS011;3789;47.064;15.482;2023-05-16T05:41:32;5.00;;;4.40;;
7495;SDS011;3789;47.064;15.482;2023-05-16T05:44:01;4.60;;;4.07;;
7495;SDS011;3789;47.064;15.482;2023-05-16T05:46:31;4.60;;;4.20;;
7495;SDS011;3789;47.064;15.482;2023-05-16T05:49:00;4.67;;;4.27;;
7495;SDS011;3789;47.064;15.482;2023-05-16T05:51:31;5.03;;;4.53;;
7495;SDS011;3789;47.064;15.482;2023-05-16T05:54:05;5.47;;;4.97;;
7495;SDS011;3789;47.064;15.482;2023-05-16T05:56:37;5.43;;;4.90;;
7495;SDS011;3789;47.064;15.482;2023-05-16T05:59:07;5.60;;;4.57;;
7495;SDS011;3789;47.064;15.482;2023-05-16T06:01:38;6.13;;;4.87;;
7495;SDS011;3789;47.064;15.482;2023-05-16T06:04:10;5.37;;;4.30;;
7495;SDS011;3789;47.064;15.482;2023-05-16T06:06:46;4.80;;;4.40;;
7495;SDS011;3789;47.064;15.482;2023-05-16T06:09:36;4.87;;;4.30;;
7495;SDS011;3789;47.064;15.482;2023-05-16T06:12:08;4.93;;;4.43;;
7495;SDS011;3789;47.064;15.482;2023-05-16T06:14:37;5.43;;;4.90;;
7495;SDS011;3789;47.064;15.482;2023-05-16T06:17:11;5.73;;;4.60;;
7495;SDS011;3789;47.064;15.482;2023-05-16T06:19:52;6.07;;;5.30;;
7495;SDS011;3789;47.064;15.482;2023-05-16T06:22:20;4.47;;;4.13;;
7495;SDS011;3789;47.064;15.482;2023-05-16T06:24:49;5.60;;;5.07;;
7495;SDS011;3789;47.064;15.482;2023-05-16T06:27:18;6.33;;;5.17;;
7495;SDS011;3789;47.064;15.482;2023-05-16T06:29:56;7.47;;;5.30;;
7495;SDS011;3789;47.064;15.482;2023-05-16T06:32:34;6.30;;;5.70;;
7495;SDS011;3789;47.064;15.482;2023-05-16T06:35:05;6.00;;;4.70;;
7495;SDS011;3789;47.064;15.482;2023-05-16T06:37:37;7.33;;;5.30;;
7495;SDS011;3789;47.064;15.482;2023-05-16T06:40:10;6.40;;;5.80;;
7495;SDS011;3789;47.064;15.482;2023-05-16T06:42:45;7.70;;;6.30;;
7495;SDS011;3789;47.064;15.482;2023-05-16T06:45:21;7.10;;;6.40;;
7495;SDS011;3789;47.064;15.482;2023-05-16T06:47:57;7.73;;;6.57;;
7495;SDS011;3789;47.064;15.482;2023-05-16T06:50:27;7.67;;;6.77;;
7495;SDS011;3789;47.064;15.482;2023-05-16T06:52:57;9.23;;;6.57;;
7495;SDS011;3789;47.064;15.482;2023-05-16T06:55:27;9.77;;;7.23;;
7495;SDS011;3789;47.064;15.482;2023-05-16T06:57:55;9.87;;;7.87;;
7495;SDS011;3789;47.064;15.482;2023-05-16T07:00:25;9.47;;;7.57;;
7495;SDS011;3789;47.064;15.482;2023-05-16T07:02:54;9.57;;;8.10;;
7495;SDS011;3789;47.064;15.482;2023-05-16T07:05:22;10.23;;;9.13;;
7495;SDS011;3789;47.064;15.482;2023-05-16T07:07:52;10.60;;;8.47;;
7495;SDS011;3789;47.064;15.482;2023-05-16T07:10:23;10.03;;;8.30;;
7495;SDS011;3789;47.064;15.482;2023-05-16T07:12:52;8.90;;;8.00;;
7495;SDS011;3789;47.064;15.482;2023-05-16T07:15:22;9.03;;;7.63;;
7495;SDS011;3789;47.064;15.482;2023-05-16T07:17:53;9.60;;;7.33;;
7495;SDS011;3789;47.064;15.482;2023-05-16T07:20:32;9.73;;;8.73;;
7495;SDS011;3789;47.064;15.482;2023-05-16T07:23:10;11.30;;;8.23;;
7495;SDS011;3789;47.064;15.482;2023-05-16T07:25:42;9.17;;;8.27;;
7495;SDS011;3789;47.064;15.482;2023-05-16T07:28:21;13.07;;;9.83;;
7495;SDS011;3789;47.064;15.482;2023-05-16T07:30:58;10.93;;;8.97;;
7495;SDS011;3789;47.064;15.482;2023-05-16T07:33:28;9.10;;;8.30;;
7495;SDS011;3789;47.064;15.482;2023-05-16T07:35:56;10.70;;;9.20;;
7495;SDS011;3789;47.064;15.482;2023-05-16T07:38:43;9.43;;;8.47;;
7495;SDS011;3789;47.064;15.482;2023-05-16T07:41:15;9.57;;;8.57;;
7495;SDS011;3789;47.064;15.482;2023-05-16T07:43:45;9.57;;;8.63;;
7495;SDS011;3789;47.064;15.482;2023-05-16T07:46:12;10.60;;;8.40;;
7495;SDS011;3789;47.064;15.482;2023-05-16T07:48:42;9.50;;;8.50;;
7495;SDS011;3789;47.064;15.482;2023-05-16T07:51:13;9.00;;;8.10;;
7495;SDS011;3789;47.064;15.482;2023-05-16T07:53:46;9.93;;;8.83;;
7495;SDS011;3789;47.064;15.482;2023-05-16T07:56:13;9.80;;;8.80;;
7495;SDS011;3789;47.064;15.482;2023-05-16T07:58:45;9.57;;;8.27;;
7495;SDS011;3789;47.064;15.482;2023-05-16T08:01:15;9.97;;;8.83;;
7495;SDS011;3789;47.064;15.482;2023-05-16T08:03:47;9.80;;;8.80;;
7495;SDS011;3789;47.064;15.482;2023-05-16T08:06:16;9.93;;;8.90;;
7495;SDS011;3789;47.064;15.482;2023-05-16T08:08:44;11.53;;;9.57;;
7495;SDS011;3789;47.064;15.482;2023-05-16T08:11:22;9.53;;;8.53;;
7495;SDS011;3789;47.064;15.482;2023-05-16T08:13:58;10.43;;;9.43;;
7495;SDS011;3789;47.064;15.482;2023-05-16T08:16:35;9.73;;;8.83;;
7495;SDS011;3789;47.064;15.482;2023-05-16T08:19:05;9.83;;;8.83;;
7495;SDS011;3789;47.064;15.482;2023-05-16T08:21:44;12.33;;;9.97;;
7495;SDS011;3789;47.064;15.482;2023-05-16T08:24:14;11.77;;;9.93;;
7495;SDS011;3789;47.064;15.482;2023-05-16T08:26:44;10.13;;;9.07;;
7495;SDS011;3789;47.064;15.482;2023-05-16T08:29:15;12.13;;;10.27;;
7495;SDS011;3789;47.064;15.482;2023-05-16T08:31:45;12.07;;;9.40;;
7495;SDS011;3789;47.064;15.482;2023-05-16T08:34:17;10.43;;;9.43;;
7495;SDS011;3789;47.064;15.482;2023-05-16T08:36:49;10.20;;;9.13;;
7495;SDS011;3789;47.064;15.482;2023-05-16T08:39:28;10.57;;;9.43;;
7495;SDS011;3789;47.064;15.482;2023-05-16T08:42:01;10.60;;;9.50;;
7495;SDS011;3789;47.064;15.482;2023-05-16T08:44:36;9.07;;;8.17;;
7495;SDS011;3789;47.064;15.482;2023-05-16T08:47:13;10.07;;;9.03;;
7495;SDS011;3789;47.064;15.482;2023-05-16T08:49:52;10.80;;;9.40;;
7495;SDS011;3789;47.064;15.482;2023-05-16T08:52:26;11.33;;;10.23;;
7495;SDS011;3789;47.064;15.482;2023-05-16T08:55:03;11.13;;;10.03;;
7495;SDS011;3789;47.064;15.482;2023-05-16T08:57:45;10.93;;;9.77;;
7495;SDS011;3789;47.064;15.482;2023-05-16T09:00:35;11.20;;;10.00;;
7495;SDS011;3789;47.064;15.482;2023-05-16T09:03:06;14.40;;;10.83;;
7495;SDS011;3789;47.064;15.482;2023-05-16T09:05:35;10.53;;;9.53;;
7495;SDS011;3789;47.064;15.482;2023-05-16T09:08:11;10.00;;;9.00;;
7495;SDS011;3789;47.064;15.482;2023-05-16T09:10:39;8.97;;;8.17;;
7495;SDS011;3789;47.064;15.482;2023-05-16T09:13:16;9.90;;;8.90;;
7495;SDS011;3789;47.064;15.482;2023-05-16T09:15:47;8.80;;;7.90;;
7495;SDS011;3789;47.064;15.482;2023-05-16T09:18:46;9.13;;;8.23;;
7495;SDS011;3789;47.064;15.482;2023-05-16T09:21:42;9.20;;;8.37;;
7495;SDS011;3789;47.064;15.482;2023-05-16T09:24:16;10.43;;;8.93;;
7495;SDS011;3789;47.064;15.482;2023-05-16T09:26:45;13.33;;;9.00;;
7495;SDS011;3789;47.064;15.482;2023-05-16T09:29:15;9.50;;;8.50;;
7495;SDS011;3789;47.064;15.482;2023-05-16T09:31:48;10.40;;;8.37;;
7495;SDS011;3789;47.064;15.482;2023-05-16T09:34:23;9.17;;;8.27;;
7495;SDS011;3789;47.064;15.482;2023-05-16T09:36:58;9.90;;;8.93;;
7495;SDS011;3789;47.064;15.482;2023-05-16T09:39:36;9.83;;;8.63;;
7495;SDS011;3789;47.064;15.482;2023-05-16T09:42:11;10.63;;;9.63;;
7495;SDS011;3789;47.064;15.482;2023-05-16T09:44:41;9.23;;;8.33;;
7495;SDS011;3789;47.064;15.482;2023-05-16T09:47:22;9.53;;;8.60;;
7495;SDS011;3789;47.064;15.482;2023-05-16T09:49:56;9.70;;;8.80;;
7495;SDS011;3789;47.064;15.482;2023-05-16T09:52:27;9.40;;;8.50;;
7495;SDS011;3789;47.064;15.482;2023-05-16T09:55:08;10.57;;;8.80;;
7495;SDS011;3789;47.064;15.482;2023-05-16T09:57:44;9.17;;;8.20;;
7495;SDS011;3789;47.064;15.482;2023-05-16T10:00:14;9.80;;;8.90;;
7495;SDS011;3789;47.064;15.482;2023-05-16T10:02:49;9.83;;;8.57;;
7495;SDS011;3789;47.064;15.482;2023-05-16T10:05:27;10.17;;;8.97;;
7495;SDS011;3789;47.064;15.482;2023-05-16T10:07:57;10.90;;;9.07;;
7495;SDS011;3789;47.064;15.482;2023-05-16T10:10:25;9.17;;;8.13;;
7495;SDS011;3789;47.064;15.482;2023-05-16T10:12:57;8.93;;;8.03;;
7495;SDS011;3789;47.064;15.482;2023-05-16T10:15:30;9.33;;;8.43;;
7495;SDS011;3789;47.064;15.482;2023-05-16T10:17:59;10.07;;;9.10;;
7495;SDS011;3789;47.064;15.482;2023-05-16T10:20:30;9.97;;;8.93;;
7495;SDS011;3789;47.064;15.482;2023-05-16T10:22:59;10.00;;;9.00;;
7495;SDS011;3789;47.064;15.482;2023-05-16T10:25:39;10.27;;;9.27;;
7495;SDS011;3789;47.064;15.482;2023-05-16T10:28:13;11.70;;;9.37;;
7495;SDS011;3789;47.064;15.482;2023-05-16T10:30:44;10.17;;;9.13;;
7495;SDS011;3789;47.064;15.482;2023-05-16T10:33:18;9.80;;;8.70;;
7495;SDS011;3789;47.064;15.482;2023-05-16T10:35:46;9.30;;;8.40;;
7495;SDS011;3789;47.064;15.482;2023-05-16T10:38:17;10.20;;;9.20;;
7495;SDS011;3789;47.064;15.482;2023-05-16T10:40:53;11.60;;;8.83;;
7495;SDS011;3789;47.064;15.482;2023-05-16T10:43:24;9.70;;;8.27;;
7495;SDS011;3789;47.064;15.482;2023-05-16T10:46:06;10.67;;;9.57;;
7495;SDS011;3789;47.064;15.482;2023-05-16T10:48:39;10.43;;;9.33;;
7495;SDS011;3789;47.064;15.482;2023-05-16T10:54:09;10.93;;;9.40;;
7495;SDS011;3789;47.064;15.482;2023-05-16T10:56:42;11.17;;;9.50;;
7495;SDS011;3789;47.064;15.482;2023-05-16T10:59:22;10.37;;;9.37;;
7495;SDS011;3789;47.064;15.482;2023-05-16T11:01:56;10.27;;;9.23;;
7495;SDS011;3789;47.064;15.482;2023-05-16T11:04:27;10.50;;;9.40;;
7495;SDS011;3789;47.064;15.482;2023-05-16T11:07:18;10.30;;;9.30;;
7495;SDS011;3789;47.064;15.482;2023-05-16T11:09:52;10.07;;;9.13;;
7495;SDS011;3789;47.064;15.482;2023-05-16T11:12:47;10.63;;;9.57;;
7495;SDS011;3789;47.064;15.482;2023-05-16T11:15:27;13.13;;;9.80;;
7495;SDS011;3789;47.064;15.482;2023-05-16T11:18:08;11.80;;;8.73;;
7495;SDS011;3789;47.064;15.482;2023-05-16T11:20:43;9.37;;;8.57;;
7495;SDS011;3789;47.064;15.482;2023-05-16T11:23:23;8.50;;;7.60;;
7495;SDS011;3789;47.064;15.482;2023-05-16T11:26:07;7.87;;;7.13;;
7495;SDS011;3789;47.064;15.482;2023-05-16T11:28:38;7.30;;;6.60;;
7495;SDS011;3789;47.064;15.482;2023-05-16T11:31:09;7.10;;;6.40;;
7495;SDS011;3789;47.064;15.482;2023-05-16T11:33:39;7.00;;;6.33;;
7495;SDS011;3789;47.064;15.482;2023-05-16T11:36:11;7.13;;;6.43;;
7495;SDS011;3789;47.064;15.482;2023-05-16T11:38:41;7.63;;;6.83;;
7495;SDS011;3789;47.064;15.482;2023-05-16T11:41:15;7.03;;;6.37;;
7495;SDS011;3789;47.064;15.482;2023-05-16T11:43:49;7.63;;;6.87;;
7495;SDS011;3789;47.064;15.482;2023-05-16T11:46:18;7.80;;;7.00;;
7495;SDS011;3789;47.064;15.482;2023-05-16T11:48:48;7.67;;;6.73;;
7495;SDS011;3789;47.064;15.482;2023-05-16T11:51:19;7.57;;;6.87;;
7495;SDS011;3789;47.064;15.482;2023-05-16T11:53:47;7.50;;;6.40;;
7495;SDS011;3789;47.064;15.482;2023-05-16T11:56:20;7.80;;;7.10;;
7495;SDS011;3789;47.064;15.482;2023-05-16T11:58:53;7.03;;;6.37;;
7495;SDS011;3789;47.064;15.482;2023-05-16T12:01:36;7.80;;;7.10;;
7495;SDS011;3789;47.064;15.482;2023-05-16T12:04:11;7.23;;;6.53;;
7495;SDS011;3789;47.064;15.482;2023-05-16T12:06:42;7.17;;;5.83;;
7495;SDS011;3789;47.064;15.482;2023-05-16T12:09:13;6.47;;;5.87;;
7495;SDS011;3789;47.064;15.482;2023-05-16T12:11:44;6.73;;;6.13;;
7495;SDS011;3789;47.064;15.482;2023-05-16T12:14:15;6.00;;;5.50;;
7495;SDS011;3789;47.064;15.482;2023-05-16T12:16:46;6.50;;;5.80;;
7495;SDS011;3789;47.064;15.482;2023-05-16T12:19:20;6.63;;;6.03;;
7495;SDS011;3789;47.064;15.482;2023-05-16T12:21:52;6.53;;;5.93;;
7495;SDS011;3789;47.064;15.482;2023-05-16T12:24:33;7.07;;;6.37;;
7495;SDS011;3789;47.064;15.482;2023-05-16T12:27:01;5.87;;;5.37;;
7495;SDS011;3789;47.064;15.482;2023-05-16T12:29:33;5.97;;;5.43;;
7495;SDS011;3789;47.064;15.482;2023-05-16T12:32:06;5.60;;;5.10;;
7495;SDS011;3789;47.064;15.482;2023-05-16T12:34:37;5.47;;;4.97;;
7495;SDS011;3789;47.064;15.482;2023-05-16T12:37:08;5.63;;;4.73;;
7495;SDS011;3789;47.064;15.482;2023-05-16T12:39:42;4.63;;;4.23;;
7495;SDS011;3789;47.064;15.482;2023-05-16T12:42:14;5.30;;;4.83;;
7495;SDS011;3789;47.064;15.482;2023-05-16T12:44:44;4.90;;;4.40;;
7495;SDS011;3789;47.064;15.482;2023-05-16T12:47:14;5.03;;;4.63;;
7495;SDS011;3789;47.064;15.482;2023-05-16T12:49:46;5.00;;;4.60;;
7495;SDS011;3789;47.064;15.482;2023-05-16T12:52:19;5.27;;;4.60;;
7495;SDS011;3789;47.064;15.482;2023-05-16T12:54:47;4.63;;;4.23;;
7495;SDS011;3789;47.064;15.482;2023-05-16T12:57:16;4.63;;;4.23;;
7495;SDS011;3789;47.064;15.482;2023-05-16T12:59:47;4.27;;;3.90;;
7495;SDS011;3789;47.064;15.482;2023-05-16T13:02:16;4.63;;;4.10;;
7495;SDS011;3789;47.064;15.482;2023-05-16T13:04:44;3.97;;;3.67;;
7495;SDS011;3789;47.064;15.482;2023-05-16T13:07:13;5.17;;;3.73;;
7495;SDS011;3789;47.064;15.482;2023-05-16T13:09:44;4.20;;;3.80;;
7495;SDS011;3789;47.064;15.482;2023-05-16T13:12:14;4.60;;;3.90;;
7495;SDS011;3789;47.064;15.482;2023-05-16T13:14:46;3.97;;;3.67;;
7495;SDS011;3789;47.064;15.482;2023-05-16T13:17:15;3.80;;;3.50;;
7495;SDS011;3789;47.064;15.482;2023-05-16T13:19:46;3.70;;;3.40;;
7495;SDS011;3789;47.064;15.482;2023-05-16T13:22:18;3.90;;;3.50;;
7495;SDS011;3789;47.064;15.482;2023-05-16T13:24:47;4.20;;;3.80;;
7495;SDS011;3789;47.064;15.482;2023-05-16T13:27:16;4.07;;;3.77;;
7495;SDS011;3789;47.064;15.482;2023-05-16T13:29:53;10.47;;;7.93;;
7495;SDS011;3789;47.064;15.482;2023-05-16T13:32:24;9.37;;;7.07;;
7495;SDS011;3789;47.064;15.482;2023-05-16T13:34:55;8.20;;;6.13;;
7495;SDS011;3789;47.064;15.482;2023-05-16T13:37:32;6.90;;;5.37;;
7495;SDS011;3789;47.064;15.482;2023-05-16T13:40:04;4.83;;;4.33;;
7495;SDS011;3789;47.064;15.482;2023-05-16T13:42:36;3.97;;;3.60;;
7495;SDS011;3789;47.064;15.482;2023-05-16T13:45:13;3.93;;;3.43;;
7495;SDS011;3789;47.064;15.482;2023-05-16T13:47:43;6.77;;;6.17;;
7495;SDS011;3789;47.064;15.482;2023-05-16T13:50:13;4.80;;;4.40;;
7495;SDS011;3789;47.064;15.482;2023-05-16T13:52:41;3.80;;;3.50;;
7495;SDS011;3789;47.064;15.482;2023-05-16T13:55:13;5.00;;;4.50;;
7495;SDS011;3789;47.064;15.482;2023-05-16T13:57:44;3.80;;;3.50;;
7495;SDS011;3789;47.064;15.482;2023-05-16T14:00:23;5.20;;;3.50;;
7495;SDS011;3789;47.064;15.482;2023-05-16T14:03:10;3.53;;;3.23;;
7495;SDS011;3789;47.064;15.482;2023-05-16T14:05:42;3.83;;;3.47;;
7495;SDS011;3789;47.064;15.482;2023-05-16T14:08:14;3.77;;;3.43;;
7495;SDS011;3789;47.064;15.482;2023-05-16T14:10:44;3.43;;;3.13;;
7495;SDS011;3789;47.064;15.482;2023-05-16T14:13:16;3.80;;;3.33;;
7495;SDS011;3789;47.064;15.482;2023-05-16T14:15:45;4.00;;;3.60;;
7495;SDS011;3789;47.064;15.482;2023-05-16T14:18:23;3.33;;;3.03;;
7495;SDS011;3789;47.064;15.482;2023-05-16T14:20:58;3.60;;;3.30;;
7495;SDS011;3789;47.064;15.482;2023-05-16T14:23:35;5.20;;;4.70;;
7495;SDS011;3789;47.064;15.482;2023-05-16T14:26:04;3.70;;;3.40;;
7495;SDS011;3789;47.064;15.482;2023-05-16T14:28:42;3.50;;;3.20;;
7495;SDS011;3789;47.064;15.482;2023-05-16T14:31:13;3.67;;;3.20;;
7495;SDS011;3789;47.064;15.482;2023-05-16T14:33:48;3.77;;;3.47;;
7495;SDS011;3789;47.064;15.482;2023-05-16T14:36:17;5.53;;;3.73;;
7495;SDS011;3789;47.064;15.482;2023-05-16T14:38:48;3.93;;;3.53;;
7495;SDS011;3789;47.064;15.482;2023-05-16T14:41:16;4.00;;;3.60;;
7495;SDS011;3789;47.064;15.482;2023-05-16T14:43:46;3.90;;;3.60;;
7495;SDS011;3789;47.064;15.482;2023-05-16T14:46:16;3.60;;;3.30;;
7495;SDS011;3789;47.064;15.482;2023-05-16T14:48:45;3.57;;;3.27;;
7495;SDS011;3789;47.064;15.482;2023-05-16T14:51:12;4.00;;;3.70;;
7495;SDS011;3789;47.064;15.482;2023-05-16T14:53:42;4.60;;;3.13;;
7495;SDS011;3789;47.064;15.482;2023-05-16T14:56:14;3.40;;;3.10;;
7495;SDS011;3789;47.064;15.482;2023-05-16T14:58:43;4.13;;;3.60;;
7495;SDS011;3789;47.064;15.482;2023-05-16T15:01:11;4.20;;;3.80;;
7495;SDS011;3789;47.064;15.482;2023-05-16T15:03:43;5.90;;;4.73;;
7495;SDS011;3789;47.064;15.482;2023-05-16T15:06:23;5.30;;;4.70;;
7495;SDS011;3789;47.064;15.482;2023-05-16T15:08:50;4.23;;;3.83;;
7495;SDS011;3789;47.064;15.482;2023-05-16T15:11:27;5.17;;;4.30;;
7495;SDS011;3789;47.064;15.482;2023-05-16T15:13:56;5.67;;;4.67;;
7495;SDS011;3789;47.064;15.482;2023-05-16T15:16:24;4.70;;;4.20;;
7495;SDS011;3789;47.064;15.482;2023-05-16T15:19:01;4.83;;;4.43;;
7495;SDS011;3789;47.064;15.482;2023-05-16T15:21:30;4.80;;;4.40;;
7495;SDS011;3789;47.064;15.482;2023-05-16T15:24:00;5.60;;;5.00;;
7495;SDS011;3789;47.064;15.482;2023-05-16T15:26:29;5.40;;;4.90;;
7495;SDS011;3789;47.064;15.482;2023-05-16T15:28:59;5.10;;;4.60;;
7495;SDS011;3789;47.064;15.482;2023-05-16T15:31:28;7.90;;;5.60;;
7495;SDS011;3789;47.064;15.482;2023-05-16T15:33:59;5.57;;;5.17;;
7495;SDS011;3789;47.064;15.482;2023-05-16T15:36:27;5.20;;;4.80;;
7495;SDS011;3789;47.064;15.482;2023-05-16T15:38:56;5.43;;;4.80;;
7495;SDS011;3789;47.064;15.482;2023-05-16T15:41:31;5.87;;;4.77;;
7495;SDS011;3789;47.064;15.482;2023-05-16T15:44:22;5.37;;;4.87;;
7495;SDS011;3789;47.064;15.482;2023-05-16T15:46:49;5.87;;;5.30;;
7495;SDS011;3789;47.064;15.482;2023-05-16T15:49:17;5.83;;;4.83;;
7495;SDS011;3789;47.064;15.482;2023-05-16T15:51:49;5.40;;;4.90;;
7495;SDS011;3789;47.064;15.482;2023-05-16T15:54:21;5.17;;;4.57;;
7495;SDS011;3789;47.064;15.482;2023-05-16T15:56:48;5.43;;;4.63;;
7495;SDS011;3789;47.064;15.482;2023-05-16T15:59:16;7.30;;;4.90;;
7495;SDS011;3789;47.064;15.482;2023-05-16T16:01:51;5.43;;;4.93;;
7495;SDS011;3789;47.064;15.482;2023-05-16T16:04:22;6.90;;;5.00;;
7495;SDS011;3789;47.064;15.482;2023-05-16T16:06:53;8.67;;;5.57;;
7495;SDS011;3789;47.064;15.482;2023-05-16T16:09:23;6.20;;;5.17;;